Time;durP1;ratioP1;P1;durP2;ratioP2;P2;SDS_P1;SDS_P2;PMS_P1;PMS_P2;Temp;Humidity;BMP_temperature;BMP_pressure;BME280_temperature;BME280_humidity;BME280_pressure;Samples;Min_cycle;Max_cycle;Signal;HPM_P1;HPM_P2
2022/09/28 00:00:20;;;;;;;1.20;0.80;;;8.30;99.90;;;;;;5031827;28;20206;-67
2022/09/28 00:02:47;;;;;;;1.27;1.17;;;8.30;99.90;;;;;;5030852;28;20203;-66
2022/09/28 00:05:14;;;;;;;1.60;1.10;;;8.30;99.90;;;;;;5031695;28;20706;-65
2022/09/28 00:07:41;;;;;;;1.40;1.00;;;8.30;99.90;;;;;;5031042;28;20664;-66
2022/09/28 00:10:08;;;;;;;2.25;1.15;;;8.20;99.90;;;;;;5031195;28;20233;-65
2022/09/28 00:12:36;;;;;;;0.95;0.77;;;8.20;99.90;;;;;;5030777;28;20214;-66
2022/09/28 00:15:04;;;;;;;1.98;0.90;;;8.10;99.90;;;;;;5031260;28;20218;-66
2022/09/28 00:17:30;;;;;;;1.55;0.95;;;8.10;99.90;;;;;;5031137;28;20236;-65
2022/09/28 00:19:57;;;;;;;1.33;1.00;;;8.20;99.90;;;;;;5031274;28;20685;-66
2022/09/28 00:22:24;;;;;;;5.85;1.20;;;8.20;99.90;;;;;;5030533;28;20212;-66
2022/09/28 00:24:51;;;;;;;1.02;0.85;;;8.20;99.90;;;;;;5031071;28;20756;-66
2022/09/28 00:27:17;;;;;;;3.08;0.90;;;8.20;99.90;;;;;;5031020;28;20198;-66
2022/09/28 00:29:45;;;;;;;1.23;1.10;;;8.20;99.90;;;;;;5031051;28;20261;-66
2022/09/28 00:32:14;;;;;;;1.20;1.05;;;8.20;99.90;;;;;;5030645;28;20212;-66
2022/09/28 00:34:44;;;;;;;1.15;0.90;;;8.30;99.90;;;;;;5030721;28;20276;-65
2022/09/28 00:37:12;;;;;;;1.20;1.02;;;8.30;99.90;;;;;;5031022;28;20240;-66
2022/09/28 00:39:40;;;;;;;1.38;0.93;;;8.30;99.90;;;;;;5030557;28;20212;-66
2022/09/28 00:42:12;;;;;;;1.50;1.10;;;8.40;99.90;;;;;;5030346;28;20249;-66
2022/09/28 00:44:47;;;;;;;1.20;1.10;;;8.40;99.90;;;;;;5030552;28;20228;-66
2022/09/28 00:47:25;;;;;;;1.00;0.90;;;8.40;99.90;;;;;;5030881;28;20198;-66
2022/09/28 00:49:57;;;;;;;1.17;0.90;;;8.30;99.90;;;;;;5030863;28;20202;-65
2022/09/28 00:52:30;;;;;;;0.82;0.70;;;8.30;99.90;;;;;;5029920;28;20208;-66
2022/09/28 00:55:00;;;;;;;2.38;1.10;;;8.30;99.90;;;;;;5030731;28;20237;-66
2022/09/28 00:57:27;;;;;;;1.67;1.10;;;8.30;99.90;;;;;;5029662;28;20232;-66
2022/09/28 00:59:55;;;;;;;1.85;1.30;;;8.30;99.90;;;;;;5030773;28;20199;-65
2022/09/28 01:02:22;;;;;;;1.20;0.90;;;8.40;99.90;;;;;;5029754;28;20208;-65
2022/09/28 01:04:50;;;;;;;1.25;0.95;;;8.40;99.90;;;;;;5030560;28;20226;-66
2022/09/28 01:07:17;;;;;;;2.80;1.05;;;8.50;99.90;;;;;;5030443;28;20229;-66
2022/09/28 01:09:45;;;;;;;0.90;0.80;;;8.50;99.90;;;;;;5029973;28;20207;-65
2022/09/28 01:12:12;;;;;;;4.53;1.02;;;8.50;99.90;;;;;;5029455;28;20717;-66
2022/09/28 01:14:40;;;;;;;0.90;0.80;;;8.60;99.90;;;;;;5029855;28;20223;-66
2022/09/28 01:17:14;;;;;;;3.25;1.10;;;8.70;99.90;;;;;;5030275;28;20233;-65
2022/09/28 01:20:23;;;;;;;2.15;1.20;;;8.70;99.90;;;;;;5030016;28;20208;-66
2022/09/28 01:23:21;;;;;;;1.20;0.80;;;8.70;99.90;;;;;;5029604;28;20206;-66
2022/09/28 01:25:53;;;;;;;1.17;0.98;;;8.70;99.90;;;;;;5030063;28;20247;-66
2022/09/28 01:28:25;;;;;;;1.25;0.95;;;8.70;99.90;;;;;;5030049;28;20252;-66
2022/09/28 01:31:02;;;;;;;0.80;0.80;;;8.70;99.90;;;;;;5030311;28;20213;-66
2022/09/28 01:33:36;;;;;;;1.30;1.17;;;8.70;99.90;;;;;;5029165;28;20225;-66
2022/09/28 01:36:10;;;;;;;1.48;1.00;;;8.70;99.90;;;;;;5030398;28;20206;-66
2022/09/28 01:38:41;;;;;;;1.25;0.93;;;8.70;99.90;;;;;;5029644;28;20332;-66
2022/09/28 01:41:09;;;;;;;2.80;1.00;;;8.70;99.90;;;;;;5030052;28;20205;-66
2022/09/28 01:43:40;;;;;;;1.52;0.93;;;8.70;99.90;;;;;;5029467;28;20248;-66
2022/09/28 01:46:13;;;;;;;3.10;0.90;;;8.70;99.90;;;;;;5030384;28;20198;-66
2022/09/28 01:48:45;;;;;;;1.65;1.38;;;8.70;99.90;;;;;;5029956;28;20198;-66
2022/09/28 01:51:19;;;;;;;4.88;0.95;;;8.70;99.90;;;;;;5029617;28;20284;-65
2022/09/28 01:53:51;;;;;;;1.20;1.10;;;8.80;99.90;;;;;;5029828;28;20236;-66
2022/09/28 01:56:24;;;;;;;1.40;0.93;;;8.80;99.90;;;;;;5029861;28;20206;-65
2022/09/28 01:58:56;;;;;;;1.35;1.25;;;8.80;99.90;;;;;;5029920;28;20233;-66
2022/09/28 02:01:29;;;;;;;2.08;1.00;;;8.80;99.90;;;;;;5029271;28;20209;-65
2022/09/28 02:04:01;;;;;;;1.25;0.93;;;8.80;99.90;;;;;;5029911;28;20576;-67
2022/09/28 02:06:33;;;;;;;2.63;1.25;;;8.90;99.90;;;;;;5029689;28;20209;-66
2022/09/28 02:09:05;;;;;;;1.00;0.80;;;8.80;99.90;;;;;;5031642;28;20565;-65
2022/09/28 02:11:36;;;;;;;2.80;1.73;;;8.90;99.90;;;;;;5033029;28;20210;-66
2022/09/28 02:14:07;;;;;;;5.90;1.70;;;8.90;99.90;;;;;;5012211;23;20227;-68
2022/09/28 02:16:38;;;;;;;3.72;1.50;;;8.90;99.90;;;;;;4994513;28;20624;-69
2022/09/28 02:19:06;;;;;;;4.68;1.60;;;8.90;99.90;;;;;;4994016;28;20842;-69
2022/09/28 02:21:40;;;;;;;2.42;1.45;;;8.90;99.90;;;;;;4993337;28;20230;-69
2022/09/28 02:24:12;;;;;;;2.33;1.25;;;9.00;99.90;;;;;;4993780;28;20230;-69
2022/09/28 02:26:43;;;;;;;2.25;1.08;;;9.00;99.90;;;;;;4994164;28;20207;-69
2022/09/28 02:29:12;;;;;;;1.50;1.17;;;9.00;99.90;;;;;;4994009;28;20668;-69
2022/09/28 02:31:38;;;;;;;2.45;1.13;;;9.00;99.90;;;;;;4993318;28;20212;-69
2022/09/28 02:34:05;;;;;;;4.30;1.20;;;9.00;99.90;;;;;;4993840;28;20664;-69
2022/09/28 02:36:33;;;;;;;1.08;0.90;;;9.00;99.90;;;;;;4994009;28;20210;-68
2022/09/28 02:39:01;;;;;;;1.33;1.08;;;9.00;99.90;;;;;;5013174;28;20603;-69
2022/09/28 02:41:41;;;;;;;1.60;1.15;;;9.00;99.90;;;;;;5012853;28;20264;-69
2022/09/28 02:44:18;;;;;;;1.20;0.98;;;9.00;99.90;;;;;;5013072;28;20250;-69
2022/09/28 02:46:53;;;;;;;1.80;1.25;;;9.00;99.90;;;;;;5013514;28;20209;-69
2022/09/28 02:49:27;;;;;;;1.38;1.20;;;9.10;99.90;;;;;;5012872;28;20207;-69
2022/09/28 02:52:13;;;;;;;5.05;1.50;;;9.10;99.90;;;;;;5012772;28;20595;-69
2022/09/28 02:54:56;;;;;;;1.98;1.30;;;9.10;99.90;;;;;;5013084;28;20249;-69
2022/09/28 02:57:34;;;;;;;2.85;1.15;;;9.10;99.90;;;;;;5013139;28;20239;-69
2022/09/28 03:00:09;;;;;;;2.22;0.90;;;9.10;99.90;;;;;;5013134;28;20701;-69
2022/09/28 03:02:42;;;;;;;1.10;1.00;;;9.10;99.90;;;;;;5012334;28;20260;-69
2022/09/28 03:05:16;;;;;;;3.10;1.30;;;9.10;99.90;;;;;;5013032;28;20261;-69
2022/09/28 03:07:49;;;;;;;1.70;1.25;;;9.10;99.90;;;;;;5012873;28;20199;-69
2022/09/28 03:10:23;;;;;;;2.78;1.40;;;9.10;99.90;;;;;;5012916;28;20755;-69
2022/09/28 03:12:51;;;;;;;0.93;0.85;;;9.10;99.90;;;;;;5011967;28;20701;-69
2022/09/28 03:15:25;;;;;;;3.95;1.20;;;9.10;99.90;;;;;;5012785;28;20568;-69
2022/09/28 03:17:52;;;;;;;2.70;1.20;;;9.10;99.90;;;;;;5012701;28;20225;-69
2022/09/28 03:20:19;;;;;;;2.97;1.20;;;9.10;99.90;;;;;;5011723;28;20210;-70
2022/09/28 03:22:46;;;;;;;1.35;1.00;;;9.10;99.90;;;;;;5011895;28;20214;-69
2022/09/28 03:25:14;;;;;;;1.52;1.30;;;9.10;99.90;;;;;;5012217;28;20211;-69
2022/09/28 03:27:41;;;;;;;1.42;1.27;;;9.10;99.90;;;;;;5012734;28;20202;-69
2022/09/28 03:30:09;;;;;;;3.83;1.17;;;9.10;99.90;;;;;;5012084;28;20213;-70
2022/09/28 03:32:37;;;;;;;2.20;1.17;;;9.10;99.90;;;;;;5011634;28;20217;-69
2022/09/28 03:35:07;;;;;;;2.55;1.42;;;9.10;99.90;;;;;;5009926;28;20726;-69
2022/09/28 03:37:34;;;;;;;2.10;1.25;;;9.10;99.90;;;;;;5005302;28;20216;-69
2022/09/28 03:40:01;;;;;;;1.13;1.02;;;9.20;99.90;;;;;;5007780;28;20202;-68
2022/09/28 03:42:27;;;;;;;1.30;1.00;;;9.10;99.90;;;;;;5007216;28;20207;-68
2022/09/28 03:44:54;;;;;;;1.23;1.13;;;9.10;99.90;;;;;;5008196;28;20222;-69
2022/09/28 03:47:21;;;;;;;1.70;1.42;;;9.10;99.90;;;;;;5006248;28;20203;-69
2022/09/28 03:49:49;;;;;;;3.92;1.45;;;9.10;99.90;;;;;;5010303;28;20199;-69
2022/09/28 03:52:15;;;;;;;2.78;1.33;;;9.20;99.90;;;;;;5010919;28;20213;-67
2022/09/28 03:54:42;;;;;;;2.40;1.40;;;9.20;99.90;;;;;;5010502;28;20226;-68
2022/09/28 03:57:09;;;;;;;1.70;1.60;;;9.20;99.90;;;;;;5010938;28;20202;-69
2022/09/28 03:59:36;;;;;;;2.08;1.00;;;9.20;99.90;;;;;;5010861;28;20302;-69
2022/09/28 04:02:04;;;;;;;1.08;0.98;;;9.20;99.90;;;;;;5010525;28;20199;-68
2022/09/28 04:04:31;;;;;;;1.38;0.90;;;9.20;99.90;;;;;;5011319;28;20223;-69
2022/09/28 04:06:59;;;;;;;1.40;1.20;;;9.20;99.90;;;;;;5010930;28;20198;-69
2022/09/28 04:09:26;;;;;;;1.35;1.02;;;9.20;99.90;;;;;;5010994;28;20658;-69
2022/09/28 04:11:52;;;;;;;2.08;1.15;;;9.20;99.90;;;;;;5010173;28;20209;-69
2022/09/28 04:14:19;;;;;;;1.10;0.90;;;9.20;99.90;;;;;;5002805;28;20234;-68
2022/09/28 04:16:46;;;;;;;2.13;1.00;;;9.20;99.90;;;;;;5006017;28;20212;-69
2022/09/28 04:19:14;;;;;;;0.80;0.80;;;9.20;99.90;;;;;;5003597;28;20219;-70
2022/09/28 04:21:40;;;;;;;1.50;1.00;;;9.20;99.90;;;;;;5008602;28;20207;-70
2022/09/28 04:24:09;;;;;;;0.90;0.80;;;9.10;99.90;;;;;;5009825;28;20242;-68
2022/09/28 04:26:36;;;;;;;1.48;0.80;;;9.10;99.90;;;;;;5007625;28;20204;-69
2022/09/28 04:29:17;;;;;;;1.10;0.80;;;9.10;99.90;;;;;;5010694;28;20187;-68
2022/09/28 04:31:46;;;;;;;1.85;0.90;;;9.10;99.90;;;;;;4990858;28;20227;-69
2022/09/28 04:34:16;;;;;;;2.00;1.10;;;9.10;99.90;;;;;;4990794;28;20714;-69
2022/09/28 04:36:42;;;;;;;4.50;1.10;;;9.10;99.90;;;;;;4991603;28;20262;-69
2022/09/28 04:39:11;;;;;;;3.13;1.00;;;9.10;99.90;;;;;;4991485;28;20294;-69
2022/09/28 04:41:38;;;;;;;2.17;0.85;;;9.10;99.90;;;;;;4991094;28;20203;-69
2022/09/28 04:44:04;;;;;;;1.00;0.90;;;9.10;99.90;;;;;;4991438;28;20227;-69
2022/09/28 04:46:31;;;;;;;0.80;0.77;;;9.10;99.90;;;;;;4991842;28;20218;-69
2022/09/28 04:48:58;;;;;;;0.90;0.77;;;9.00;99.90;;;;;;4991254;28;20203;-70
2022/09/28 04:51:25;;;;;;;0.90;0.80;;;9.00;99.90;;;;;;4990920;28;20620;-70
2022/09/28 04:53:51;;;;;;;1.05;0.90;;;9.00;99.90;;;;;;4991465;28;20281;-69
2022/09/28 04:56:19;;;;;;;0.80;0.73;;;9.00;99.90;;;;;;4991293;28;20204;-70
2022/09/28 04:58:46;;;;;;;1.20;0.88;;;9.00;99.90;;;;;;4991444;28;20288;-68
2022/09/28 05:01:15;;;;;;;1.38;1.20;;;9.00;99.90;;;;;;4990579;28;20208;-68
2022/09/28 05:03:42;;;;;;;2.10;1.10;;;8.90;99.90;;;;;;4991098;28;20315;-68
2022/09/28 05:06:12;;;;;;;1.80;1.00;;;8.90;99.90;;;;;;4990840;28;20214;-68
2022/09/28 05:08:39;;;;;;;0.80;0.70;;;8.90;99.90;;;;;;4991505;28;20207;-70
2022/09/28 05:11:08;;;;;;;1.58;1.15;;;9.00;99.90;;;;;;4991014;28;20210;-69
2022/09/28 05:13:41;;;;;;;1.98;0.90;;;8.90;99.90;;;;;;4990966;28;20239;-70
2022/09/28 05:16:08;;;;;;;0.80;0.80;;;8.90;99.90;;;;;;4991471;28;20207;-68
2022/09/28 05:18:35;;;;;;;1.17;0.80;;;8.90;99.90;;;;;;4990967;28;20238;-68
2022/09/28 05:21:02;;;;;;;0.90;0.80;;;8.90;99.90;;;;;;4991081;28;20237;-68
2022/09/28 05:23:29;;;;;;;2.35;1.25;;;8.90;99.90;;;;;;4990443;28;20224;-69
2022/09/28 05:25:55;;;;;;;1.25;0.80;;;8.80;99.90;;;;;;4991576;28;20590;-68
2022/09/28 05:28:26;;;;;;;1.52;1.00;;;8.80;99.90;;;;;;4990794;28;20199;-68
2022/09/28 05:30:58;;;;;;;1.10;0.98;;;8.80;99.90;;;;;;4991100;28;20242;-68
2022/09/28 05:33:25;;;;;;;1.75;0.90;;;8.80;99.90;;;;;;4990345;28;20235;-68
2022/09/28 05:35:52;;;;;;;1.05;0.90;;;8.80;99.90;;;;;;4990808;28;20203;-68
2022/09/28 05:38:18;;;;;;;3.33;1.00;;;8.80;99.90;;;;;;4990808;28;20227;-68
2022/09/28 05:40:45;;;;;;;1.50;1.10;;;8.80;99.90;;;;;;4990875;28;20218;-68
2022/09/28 05:43:12;;;;;;;1.00;0.90;;;8.80;99.90;;;;;;4990540;28;20222;-67
2022/09/28 05:45:38;;;;;;;1.42;1.33;;;8.90;99.90;;;;;;4994912;28;20210;-68
2022/09/28 05:48:06;;;;;;;1.10;0.90;;;8.90;99.90;;;;;;4994661;28;20766;-67
2022/09/28 05:50:33;;;;;;;1.25;1.15;;;8.90;99.90;;;;;;4995031;28;20210;-68
2022/09/28 05:53:01;;;;;;;3.90;1.20;;;8.90;99.90;;;;;;4993917;28;20202;-73
2022/09/28 05:55:28;;;;;;;2.17;1.20;;;8.90;99.90;;;;;;4994783;28;20214;-68
2022/09/28 05:57:58;;;;;;;2.22;1.00;;;8.90;99.90;;;;;;4994542;28;20206;-67
2022/09/28 06:00:25;;;;;;;1.60;1.25;;;8.90;99.90;;;;;;4994429;28;20210;-68
2022/09/28 06:02:59;;;;;;;1.52;0.98;;;8.80;99.90;;;;;;4993802;28;20207;-67
2022/09/28 06:05:28;;;;;;;2.08;0.90;;;8.90;99.90;;;;;;5007081;28;20820;-68
2022/09/28 06:07:57;;;;;;;1.27;0.95;;;8.90;99.90;;;;;;5013966;28;20205;-68
2022/09/28 06:10:24;;;;;;;1.00;0.90;;;8.90;99.90;;;;;;5013413;28;20233;-68
2022/09/28 06:12:52;;;;;;;2.65;1.58;;;8.90;99.90;;;;;;5013470;28;20221;-68
2022/09/28 06:15:19;;;;;;;2.38;1.20;;;8.90;99.90;;;;;;5013446;28;20569;-68
2022/09/28 06:17:46;;;;;;;1.65;1.33;;;8.90;99.90;;;;;;5013860;28;20214;-68
2022/09/28 06:20:13;;;;;;;2.58;1.10;;;8.90;99.90;;;;;;5013173;28;20262;-68
2022/09/28 06:22:41;;;;;;;2.15;1.00;;;8.90;99.90;;;;;;5013335;28;20255;-68
2022/09/28 06:25:09;;;;;;;1.20;1.05;;;8.90;99.90;;;;;;5013444;28;20353;-68
2022/09/28 06:27:36;;;;;;;1.50;1.20;;;8.90;99.90;;;;;;5013585;28;20206;-68
2022/09/28 06:30:03;;;;;;;1.52;1.10;;;8.90;99.90;;;;;;5013548;28;20202;-69
2022/09/28 06:32:30;;;;;;;1.30;0.90;;;8.90;99.90;;;;;;5012870;28;20208;-68
2022/09/28 06:34:56;;;;;;;1.25;1.15;;;8.90;99.90;;;;;;5013506;28;20222;-68
2022/09/28 06:37:24;;;;;;;2.20;1.48;;;8.90;99.90;;;;;;5013591;28;20715;-69
2022/09/28 06:39:53;;;;;;;2.33;1.38;;;9.00;99.90;;;;;;5013287;28;20229;-69
2022/09/28 06:42:19;;;;;;;2.90;1.58;;;9.00;99.90;;;;;;5012579;28;20238;-68
2022/09/28 06:44:46;;;;;;;1.42;1.33;;;9.00;99.90;;;;;;5013411;28;20231;-68
2022/09/28 06:47:13;;;;;;;1.75;1.17;;;9.00;99.90;;;;;;5013008;28;20212;-69
2022/09/28 06:49:40;;;;;;;2.85;1.30;;;9.10;99.90;;;;;;5013225;28;20206;-69
2022/09/28 06:52:07;;;;;;;2.88;1.40;;;9.10;99.90;;;;;;5012200;28;20206;-69
2022/09/28 06:54:33;;;;;;;1.98;1.20;;;9.10;99.90;;;;;;5012627;28;20526;-70
2022/09/28 06:57:01;;;;;;;1.30;1.10;;;9.10;99.90;;;;;;5012425;28;20306;-67
2022/09/28 06:59:28;;;;;;;1.83;1.63;;;9.20;99.90;;;;;;5013176;28;20227;-69
2022/09/28 07:01:55;;;;;;;1.40;1.17;;;9.20;99.90;;;;;;5012777;28;20225;-69
2022/09/28 07:04:22;;;;;;;1.35;1.23;;;9.20;99.90;;;;;;5012692;28;20233;-69
2022/09/28 07:06:49;;;;;;;1.60;1.50;;;9.20;99.90;;;;;;5013434;28;20218;-69
2022/09/28 07:09:16;;;;;;;2.97;1.85;;;9.20;99.90;;;;;;5012360;28;20199;-69
2022/09/28 07:11:43;;;;;;;2.60;1.50;;;9.20;99.90;;;;;;5012621;28;20210;-68
2022/09/28 07:14:11;;;;;;;2.70;1.42;;;9.20;99.90;;;;;;5012241;28;20237;-68
2022/09/28 07:16:38;;;;;;;2.53;1.35;;;9.20;99.90;;;;;;5012686;28;20216;-69
2022/09/28 07:19:05;;;;;;;1.63;1.27;;;9.20;99.90;;;;;;5012616;28;20258;-69
2022/09/28 07:21:32;;;;;;;2.20;1.45;;;9.20;99.90;;;;;;5012030;28;20666;-70
2022/09/28 07:23:59;;;;;;;1.58;1.10;;;9.20;99.90;;;;;;5012638;28;20231;-69
2022/09/28 07:26:26;;;;;;;2.53;1.67;;;9.20;99.90;;;;;;5012204;28;20304;-69
2022/09/28 07:28:54;;;;;;;2.60;1.63;;;9.10;99.90;;;;;;5012586;28;20620;-68
2022/09/28 07:31:24;;;;;;;2.38;1.30;;;9.20;99.90;;;;;;5011880;28;20199;-69
2022/09/28 07:33:52;;;;;;;2.00;1.50;;;9.20;99.90;;;;;;5012181;28;20765;-69
2022/09/28 07:36:19;;;;;;;1.50;1.10;;;9.20;99.90;;;;;;5012422;28;20316;-69
2022/09/28 07:38:46;;;;;;;1.83;1.48;;;9.20;99.90;;;;;;5012393;28;20241;-69
2022/09/28 07:41:13;;;;;;;6.07;1.58;;;9.20;99.90;;;;;;5011764;28;20217;-68
2022/09/28 07:43:40;;;;;;;1.20;1.10;;;9.20;99.90;;;;;;5012399;28;20266;-68
2022/09/28 07:46:10;;;;;;;3.78;1.60;;;9.20;99.90;;;;;;5012232;28;20213;-67
2022/09/28 07:48:40;;;;;;;1.75;1.40;;;9.30;99.90;;;;;;5007307;28;20683;-68
2022/09/28 07:51:08;;;;;;;2.70;1.40;;;9.30;99.90;;;;;;5009381;28;20206;-68
2022/09/28 07:53:37;;;;;;;2.20;1.15;;;9.30;99.90;;;;;;5011594;28;20261;-69
2022/09/28 07:56:05;;;;;;;2.05;1.45;;;9.30;99.90;;;;;;5010795;28;20217;-68
2022/09/28 07:58:33;;;;;;;2.60;1.38;;;9.40;99.90;;;;;;5011539;28;20292;-69
2022/09/28 08:01:04;;;;;;;2.95;1.60;;;9.40;99.90;;;;;;5011403;28;20212;-69
2022/09/28 08:03:31;;;;;;;2.47;1.10;;;9.50;99.90;;;;;;5011391;28;20223;-69
2022/09/28 08:06:01;;;;;;;1.23;1.13;;;9.50;99.90;;;;;;5011461;28;20261;-69
2022/09/28 08:08:28;;;;;;;1.63;1.10;;;9.50;99.90;;;;;;5011130;28;20474;-69
2022/09/28 08:13:25;;;;;;;2.30;1.52;;;9.60;99.90;;;;;;4993954;28;20254;-69
2022/09/28 08:15:52;;;;;;;2.03;1.50;;;9.70;99.90;;;;;;5007097;28;20203;-67
2022/09/28 08:18:19;;;;;;;1.50;1.40;;;9.70;99.90;;;;;;4990281;28;20219;-68
2022/09/28 08:23:33;;;;;;;2.22;1.80;;;9.80;99.90;;;;;;5010071;28;20229;-68
2022/09/28 08:26:00;;;;;;;2.00;1.40;;;9.90;99.90;;;;;;5010614;28;20213;-68
2022/09/28 08:28:27;;;;;;;2.60;1.20;;;9.90;99.90;;;;;;5010307;28;20207;-67
2022/09/28 08:33:28;;;;;;;1.90;1.70;;;9.80;99.90;;;;;;5026035;28;20284;-67
2022/09/28 08:35:58;;;;;;;1.45;1.30;;;9.90;99.90;;;;;;5030584;28;20524;-67
2022/09/28 08:38:26;;;;;;;2.47;1.20;;;9.90;99.90;;;;;;5029584;28;20855;-68
2022/09/28 08:41:06;;;;;;;1.48;1.38;;;9.90;99.90;;;;;;5030007;28;20265;-68
2022/09/28 08:44:00;;;;;;;2.42;1.77;;;9.90;99.90;;;;;;5029183;28;20603;-67
2022/09/28 08:46:33;;;;;;;1.75;1.20;;;10.00;99.90;;;;;;5028975;28;20202;-68
2022/09/28 08:49:05;;;;;;;1.95;1.48;;;10.00;99.90;;;;;;5030169;28;20700;-67
2022/09/28 08:51:37;;;;;;;5.93;1.30;;;10.00;99.90;;;;;;5029179;28;20216;-67
2022/09/28 08:54:24;;;;;;;1.52;1.33;;;10.10;99.90;;;;;;5029531;28;20714;-68
2022/09/28 08:56:54;;;;;;;2.95;1.63;;;10.20;99.90;;;;;;5029874;28;20228;-69
2022/09/28 08:59:24;;;;;;;1.55;1.35;;;10.20;99.90;;;;;;5044895;28;20836;-68
2022/09/28 09:01:58;;;;;;;1.40;1.25;;;10.20;99.90;;;;;;5069032;28;20203;-67
2022/09/28 09:04:25;;;;;;;1.30;1.20;;;10.20;99.90;;;;;;5069276;28;20233;-67
2022/09/28 09:07:09;;;;;;;1.60;1.40;;;10.20;99.90;;;;;;5069735;28;20204;-67
2022/09/28 09:09:51;;;;;;;2.60;1.70;;;10.20;99.90;;;;;;5058560;28;20238;-67
2022/09/28 09:12:30;;;;;;;2.40;1.48;;;10.30;99.90;;;;;;5048678;28;20202;-69
2022/09/28 09:15:09;;;;;;;1.83;1.45;;;10.40;99.90;;;;;;5049370;28;20236;-67
2022/09/28 09:17:47;;;;;;;1.80;1.70;;;10.30;99.90;;;;;;5049354;28;20564;-66
2022/09/28 09:20:19;;;;;;;1.60;1.50;;;10.40;99.90;;;;;;5048660;28;20267;-66
2022/09/28 09:22:57;;;;;;;4.50;1.63;;;10.30;99.90;;;;;;5048322;28;20271;-66
2022/09/28 09:25:28;;;;;;;2.40;1.48;;;10.30;99.90;;;;;;5038916;28;20290;-67
2022/09/28 09:28:25;;;;;;;2.80;1.20;;;10.20;99.90;;;;;;5029181;28;20206;-67
2022/09/28 09:30:59;;;;;;;1.75;1.65;;;10.20;99.90;;;;;;5029091;28;20658;-67
2022/09/28 09:33:52;;;;;;;4.28;1.75;;;10.20;99.90;;;;;;5028212;28;20979;-67
2022/09/28 09:36:31;;;;;;;2.58;1.73;;;10.10;99.90;;;;;;5029158;28;20214;-68
2022/09/28 09:39:11;;;;;;;2.28;1.60;;;10.20;99.90;;;;;;5028624;28;20210;-68
2022/09/28 09:41:51;;;;;;;3.38;1.55;;;10.20;99.90;;;;;;5028869;28;20210;-69
2022/09/28 09:44:43;;;;;;;1.88;1.60;;;10.20;99.90;;;;;;5020968;28;20226;-69
2022/09/28 09:47:13;;;;;;;3.78;1.58;;;10.20;99.90;;;;;;5025733;28;20587;-69
2022/09/28 09:49:46;;;;;;;2.63;1.83;;;10.20;99.90;;;;;;5029470;28;20206;-69
2022/09/28 09:52:18;;;;;;;1.60;1.50;;;10.20;99.90;;;;;;5028284;28;20566;-69
2022/09/28 09:54:49;;;;;;;1.55;1.42;;;10.20;99.90;;;;;;5029554;28;20265;-68
2022/09/28 09:57:21;;;;;;;2.97;1.58;;;10.30;99.90;;;;;;5029071;28;20669;-71
2022/09/28 09:59:49;;;;;;;2.95;1.38;;;10.40;99.90;;;;;;5028513;28;20223;-69
2022/09/28 10:02:23;;;;;;;2.58;1.63;;;10.50;99.90;;;;;;5028557;28;20211;-68
2022/09/28 10:04:53;;;;;;;2.13;1.60;;;10.60;99.90;;;;;;5029105;28;20230;-68
2022/09/28 10:07:23;;;;;;;1.80;1.50;;;10.70;99.90;;;;;;5028946;28;20207;-68
2022/09/28 10:09:54;;;;;;;1.63;1.52;;;10.70;99.90;;;;;;5029563;28;20206;-68
2022/09/28 10:12:23;;;;;;;1.88;1.73;;;10.80;99.90;;;;;;5027787;28;20213;-68
2022/09/28 10:14:51;;;;;;;3.40;1.95;;;10.80;99.90;;;;;;5029265;28;20222;-68
2022/09/28 10:17:25;;;;;;;3.47;1.83;;;10.80;99.90;;;;;;5028845;28;20312;-68
2022/09/28 10:19:53;;;;;;;2.25;1.60;;;10.90;99.90;;;;;;5029561;28;20254;-68
2022/09/28 10:22:23;;;;;;;1.60;1.33;;;11.00;99.90;;;;;;5028234;28;20202;-67
2022/09/28 10:24:55;;;;;;;3.30;1.60;;;11.00;99.90;;;;;;5028590;28;20226;-68
2022/09/28 10:27:26;;;;;;;5.18;1.70;;;11.10;99.90;;;;;;5029034;28;20206;-68
2022/09/28 10:29:56;;;;;;;1.42;1.30;;;11.10;99.90;;;;;;5030359;28;20199;-68
2022/09/28 10:32:24;;;;;;;4.70;2.05;;;11.10;99.90;;;;;;5031859;28;20751;-68
2022/09/28 10:34:53;;;;;;;3.17;1.35;;;11.10;99.90;;;;;;5032492;28;20250;-68
2022/09/28 10:37:21;;;;;;;1.60;1.50;;;11.10;99.90;;;;;;5024315;28;20206;-68
2022/09/28 10:39:52;;;;;;;4.43;1.80;;;11.10;99.90;;;;;;5032797;28;20309;-68
2022/09/28 10:42:22;;;;;;;3.08;1.40;;;11.00;99.90;;;;;;5031702;28;20202;-68
2022/09/28 10:44:58;;;;;;;6.05;1.88;;;11.00;99.90;;;;;;5032732;28;20229;-67
2022/09/28 10:47:29;;;;;;;1.98;1.50;;;11.00;99.90;;;;;;5032454;28;20202;-67
2022/09/28 10:49:56;;;;;;;3.00;1.85;;;11.10;99.90;;;;;;5032624;28;20198;-67
2022/09/28 10:52:38;;;;;;;2.95;1.50;;;11.10;99.90;;;;;;5031430;28;20202;-68
2022/09/28 10:55:25;;;;;;;2.13;1.92;;;11.10;99.90;;;;;;5032403;28;20258;-68
2022/09/28 10:57:52;;;;;;;2.65;1.52;;;11.10;99.90;;;;;;5032507;28;20213;-67
2022/09/28 11:00:33;;;;;;;3.00;1.65;;;11.20;99.90;;;;;;5023246;28;20242;-68
2022/09/28 11:03:01;;;;;;;1.20;1.02;;;11.30;99.90;;;;;;5031862;28;20198;-67
2022/09/28 11:05:28;;;;;;;2.30;1.60;;;11.40;99.90;;;;;;5031986;28;20206;-67
2022/09/28 11:07:58;;;;;;;1.55;1.27;;;11.50;99.90;;;;;;5031910;28;20576;-68
2022/09/28 11:10:28;;;;;;;1.70;1.48;;;11.50;99.90;;;;;;5031668;28;20208;-68
2022/09/28 11:12:55;;;;;;;2.05;1.65;;;11.60;99.90;;;;;;5030849;28;20212;-67
2022/09/28 11:15:27;;;;;;;1.65;1.30;;;11.70;99.90;;;;;;5031507;28;20257;-68
2022/09/28 11:17:55;;;;;;;1.65;1.30;;;11.80;99.90;;;;;;5032233;28;20198;-68
2022/09/28 11:20:34;;;;;;;1.90;1.10;;;11.80;99.90;;;;;;5031216;28;20218;-67
2022/09/28 11:23:19;;;;;;;1.58;1.48;;;11.80;99.90;;;;;;5031404;28;20743;-68
2022/09/28 11:25:58;;;;;;;2.08;1.70;;;11.90;99.90;;;;;;5031258;28;20238;-68
2022/09/28 11:28:30;;;;;;;2.47;1.60;;;12.00;99.90;;;;;;5031755;28;20202;-68
2022/09/28 11:30:58;;;;;;;1.52;1.30;;;12.00;99.90;;;;;;5031699;28;20213;-68
2022/09/28 11:33:32;;;;;;;1.80;1.23;;;12.00;99.90;;;;;;5030782;28;20696;-67
2022/09/28 11:36:09;;;;;;;1.83;1.25;;;12.00;99.90;;;;;;5031329;28;20202;-67
2022/09/28 11:38:40;;;;;;;1.50;1.20;;;12.00;99.90;;;;;;5031602;28;20434;-68
2022/09/28 11:41:23;;;;;;;1.40;1.30;;;11.90;99.90;;;;;;5030784;28;20223;-68
2022/09/28 11:44:04;;;;;;;1.88;1.40;;;11.90;99.90;;;;;;5031301;28;20603;-68
2022/09/28 11:46:41;;;;;;;1.98;1.35;;;11.90;99.90;;;;;;5031358;28;20202;-67
2022/09/28 11:49:19;;;;;;;1.85;1.38;;;11.90;99.90;;;;;;5031036;28;20202;-68
2022/09/28 11:51:49;;;;;;;2.20;1.50;;;12.00;99.90;;;;;;5030752;28;20249;-67
2022/09/28 11:54:25;;;;;;;1.80;1.40;;;12.10;99.90;;;;;;5030987;28;20223;-67
2022/09/28 11:56:52;;;;;;;2.60;1.23;;;12.20;99.90;;;;;;5031379;28;20563;-67
2022/09/28 11:59:26;;;;;;;1.98;1.20;;;12.20;99.90;;;;;;5031071;28;20460;-67
2022/09/28 12:01:56;;;;;;;1.20;1.10;;;12.20;99.90;;;;;;5030660;28;20232;-69
2022/09/28 12:04:31;;;;;;;3.33;1.83;;;12.20;99.90;;;;;;5030815;28;20253;-67
2022/09/28 12:07:03;;;;;;;7.07;1.33;;;12.10;99.90;;;;;;5031202;28;20838;-67
2022/09/28 12:09:35;;;;;;;2.20;1.20;;;12.20;99.90;;;;;;5030672;28;20547;-68
2022/09/28 12:12:09;;;;;;;1.42;1.10;;;12.20;99.90;;;;;;5030407;28;20798;-67
2022/09/28 12:14:40;;;;;;;1.80;1.10;;;12.20;99.90;;;;;;5030177;28;20778;-68
2022/09/28 12:17:14;;;;;;;2.50;1.30;;;12.10;99.90;;;;;;5030877;28;20468;-67
2022/09/28 12:19:48;;;;;;;1.02;0.93;;;12.10;99.90;;;;;;5030875;28;20467;-67
2022/09/28 12:22:22;;;;;;;1.38;1.25;;;12.10;99.90;;;;;;5029297;28;20740;-67
2022/09/28 12:24:52;;;;;;;1.50;1.13;;;12.20;99.90;;;;;;5030409;28;20279;-68
2022/09/28 12:27:27;;;;;;;1.75;1.65;;;12.20;99.90;;;;;;5030559;28;20792;-68
2022/09/28 12:29:59;;;;;;;1.77;1.67;;;12.20;99.90;;;;;;5030391;28;20622;-68
2022/09/28 12:32:34;;;;;;;2.67;1.50;;;12.20;99.90;;;;;;5028920;28;20221;-67
2022/09/28 12:35:03;;;;;;;3.88;1.50;;;12.20;99.90;;;;;;5030418;28;20567;-68
2022/09/28 12:37:43;;;;;;;1.90;1.40;;;12.30;99.90;;;;;;5029751;28;20630;-66
2022/09/28 12:40:31;;;;;;;2.13;1.55;;;12.40;99.90;;;;;;5030109;28;20241;-67
2022/09/28 12:43:18;;;;;;;1.25;1.15;;;12.30;99.90;;;;;;5029850;28;20215;-67
2022/09/28 12:45:57;;;;;;;1.90;1.30;;;12.40;99.90;;;;;;5030518;28;20288;-67
2022/09/28 12:48:50;;;;;;;1.95;1.33;;;12.40;99.90;;;;;;5030195;28;20868;-67
2022/09/28 12:51:34;;;;;;;1.98;1.20;;;12.40;99.90;;;;;;5028990;28;20207;-66
2022/09/28 12:54:10;;;;;;;1.92;1.25;;;12.30;99.90;;;;;;5029363;28;20226;-67
2022/09/28 12:56:42;;;;;;;1.60;1.40;;;12.30;99.90;;;;;;5030434;28;20202;-67
2022/09/28 12:59:20;;;;;;;1.43;1.33;;;12.40;99.90;;;;;;5029514;28;20461;-68
2022/09/28 13:02:01;;;;;;;1.00;0.90;;;12.30;99.90;;;;;;5029036;28;20507;-67
2022/09/28 13:04:53;;;;;;;1.87;1.37;;;12.20;99.90;;;;;;5050132;28;20519;-68
2022/09/28 13:07:30;;;;;;;1.83;1.40;;;12.20;99.90;;;;;;5049765;28;20467;-68
2022/09/28 13:10:06;;;;;;;3.45;1.50;;;12.30;99.90;;;;;;5050571;28;20483;-67
2022/09/28 13:12:48;;;;;;;1.23;1.07;;;12.30;99.90;;;;;;5048805;28;20278;-67
2022/09/28 13:15:34;;;;;;;1.65;1.15;;;12.30;99.90;;;;;;5049418;28;20464;-67
2022/09/28 13:18:10;;;;;;;1.58;1.08;;;12.40;99.90;;;;;;5049387;28;20205;-68
2022/09/28 13:21:01;;;;;;;1.20;1.10;;;12.50;99.90;;;;;;5049751;28;20232;-68